sensor_id;sensor_type;location;lat;lon;timestamp;temperature;humidity
14893;DHT22;7538;53.626;9.906;2023-04-24T00:01:58;13.30;99.90
14893;DHT22;7538;53.626;9.906;2023-04-24T00:04:25;13.20;99.90
14893;DHT22;7538;53.626;9.906;2023-04-24T00:06:53;13.30;99.90
14893;DHT22;7538;53.626;9.906;2023-04-24T00:09:22;13.30;99.90
14893;DHT22;7538;53.626;9.906;2023-04-24T00:11:49;13.20;99.90
14893;DHT22;7538;53.626;9.906;2023-04-24T00:14:16;13.20;99.90
14893;DHT22;7538;53.626;9.906;2023-04-24T00:16:43;13.20;99.90
14893;DHT22;7538;53.626;9.906;2023-04-24T00:19:10;13.20;99.90
14893;DHT22;7538;53.626;9.906;2023-04-24T00:21:38;13.30;99.90
14893;DHT22;7538;53.626;9.906;2023-04-24T00:24:06;13.30;99.90
14893;DHT22;7538;53.626;9.906;2023-04-24T00:26:34;13.30;99.90
14893;DHT22;7538;53.626;9.906;2023-04-24T00:29:01;13.20;99.90
14893;DHT22;7538;53.626;9.906;2023-04-24T00:31:28;13.20;99.90
14893;DHT22;7538;53.626;9.906;2023-04-24T00:33:54;13.20;99.90
14893;DHT22;7538;53.626;9.906;2023-04-24T00:36:21;13.20;99.90
14893;DHT22;7538;53.626;9.906;2023-04-24T00:38:48;13.20;99.90
14893;DHT22;7538;53.626;9.906;2023-04-24T00:41:16;13.20;99.90
14893;DHT22;7538;53.626;9.906;2023-04-24T00:43:43;13.20;99.90
14893;DHT22;7538;53.626;9.906;2023-04-24T00:46:11;13.20;99.90
14893;DHT22;7538;53.626;9.906;2023-04-24T00:48:39;13.00;99.90
14893;DHT22;7538;53.626;9.906;2023-04-24T00:51:06;13.10;99.90
14893;DHT22;7538;53.626;9.906;2023-04-24T00:53:33;13.10;99.90
14893;DHT22;7538;53.626;9.906;2023-04-24T00:56:00;11.50;99.90
14893;DHT22;7538;53.626;9.906;2023-04-24T00:58:29;13.10;99.90
14893;DHT22;7538;53.626;9.906;2023-04-24T01:00:56;13.00;99.90
14893;DHT22;7538;53.626;9.906;2023-04-24T01:03:26;13.20;99.90
14893;DHT22;7538;53.626;9.906;2023-04-24T01:05:54;13.10;99.90
14893;DHT22;7538;53.626;9.906;2023-04-24T01:08:23;13.00;99.90
14893;DHT22;7538;53.626;9.906;2023-04-24T01:10:51;13.00;99.90
14893;DHT22;7538;53.626;9.906;2023-04-24T01:13:18;13.00;99.90
14893;DHT22;7538;53.626;9.906;2023-04-24T01:15:48;12.90;99.90
14893;DHT22;7538;53.626;9.906;2023-04-24T01:18:15;12.90;99.90
14893;DHT22;7538;53.626;9.906;2023-04-24T01:20:43;12.90;99.90
14893;DHT22;7538;53.626;9.906;2023-04-24T01:23:13;12.90;99.90
14893;DHT22;7538;53.626;9.906;2023-04-24T01:25:40;12.90;99.90
14893;DHT22;7538;53.626;9.906;2023-04-24T01:28:07;12.90;99.90
14893;DHT22;7538;53.626;9.906;2023-04-24T01:30:34;12.90;99.90
14893;DHT22;7538;53.626;9.906;2023-04-24T01:33:02;12.70;99.90
14893;DHT22;7538;53.626;9.906;2023-04-24T01:35:29;12.80;99.90
14893;DHT22;7538;53.626;9.906;2023-04-24T01:37:56;12.80;99.90
14893;DHT22;7538;53.626;9.906;2023-04-24T01:40:24;12.70;99.90
14893;DHT22;7538;53.626;9.906;2023-04-24T01:42:51;12.80;99.90
14893;DHT22;7538;53.626;9.906;2023-04-24T01:45:18;12.80;99.90
14893;DHT22;7538;53.626;9.906;2023-04-24T01:47:45;12.80;99.90
14893;DHT22;7538;53.626;9.906;2023-04-24T01:50:12;14.10;99.90
14893;DHT22;7538;53.626;9.906;2023-04-24T01:52:39;12.80;99.90
14893;DHT22;7538;53.626;9.906;2023-04-24T01:55:07;12.90;99.90
14893;DHT22;7538;53.626;9.906;2023-04-24T01:57:36;12.80;99.90
14893;DHT22;7538;53.626;9.906;2023-04-24T02:00:03;12.80;99.90
14893;DHT22;7538;53.626;9.906;2023-04-24T02:02:31;12.70;99.90
14893;DHT22;7538;53.626;9.906;2023-04-24T02:04:58;12.70;99.90
14893;DHT22;7538;53.626;9.906;2023-04-24T02:07:25;12.70;99.90
14893;DHT22;7538;53.626;9.906;2023-04-24T02:09:52;12.70;99.90
14893;DHT22;7538;53.626;9.906;2023-04-24T02:12:19;12.60;99.90
14893;DHT22;7538;53.626;9.906;2023-04-24T02:14:47;12.60;99.90
14893;DHT22;7538;53.626;9.906;2023-04-24T02:17:13;12.60;99.90
14893;DHT22;7538;53.626;9.906;2023-04-24T02:19:41;12.60;99.90
14893;DHT22;7538;53.626;9.906;2023-04-24T02:22:08;12.60;99.90
14893;DHT22;7538;53.626;9.906;2023-04-24T02:24:36;12.60;99.90
14893;DHT22;7538;53.626;9.906;2023-04-24T02:27:03;12.50;99.90
14893;DHT22;7538;53.626;9.906;2023-04-24T02:29:30;12.50;99.90
14893;DHT22;7538;53.626;9.906;2023-04-24T02:31:59;12.40;99.90
14893;DHT22;7538;53.626;9.906;2023-04-24T02:34:25;12.30;99.90
14893;DHT22;7538;53.626;9.906;2023-04-24T02:36:52;12.30;99.90
14893;DHT22;7538;53.626;9.906;2023-04-24T02:39:20;12.20;99.90
14893;DHT22;7538;53.626;9.906;2023-04-24T02:41:47;12.20;99.90
14893;DHT22;7538;53.626;9.906;2023-04-24T02:44:14;12.10;99.90
14893;DHT22;7538;53.626;9.906;2023-04-24T02:46:40;12.10;99.90
14893;DHT22;7538;53.626;9.906;2023-04-24T02:49:09;12.10;99.90
14893;DHT22;7538;53.626;9.906;2023-04-24T02:51:37;12.10;99.90
14893;DHT22;7538;53.626;9.906;2023-04-24T02:54:07;12.00;99.90
14893;DHT22;7538;53.626;9.906;2023-04-24T02:56:35;12.00;99.90
14893;DHT22;7538;53.626;9.906;2023-04-24T02:59:02;12.00;99.90
14893;DHT22;7538;53.626;9.906;2023-04-24T03:01:29;12.00;99.90
14893;DHT22;7538;53.626;9.906;2023-04-24T03:03:56;11.90;99.90
14893;DHT22;7538;53.626;9.906;2023-04-24T03:06:24;11.90;99.90
14893;DHT22;7538;53.626;9.906;2023-04-24T03:08:52;11.90;99.90
14893;DHT22;7538;53.626;9.906;2023-04-24T03:11:19;11.90;99.90
14893;DHT22;7538;53.626;9.906;2023-04-24T03:13:46;11.90;99.90
14893;DHT22;7538;53.626;9.906;2023-04-24T03:16:12;11.80;99.90
14893;DHT22;7538;53.626;9.906;2023-04-24T03:18:39;11.80;99.90
14893;DHT22;7538;53.626;9.906;2023-04-24T03:21:06;11.80;99.90
14893;DHT22;7538;53.626;9.906;2023-04-24T03:23:34;11.80;99.90
14893;DHT22;7538;53.626;9.906;2023-04-24T03:26:01;11.80;99.90
14893;DHT22;7538;53.626;9.906;2023-04-24T03:28:28;11.80;99.90
14893;DHT22;7538;53.626;9.906;2023-04-24T03:30:55;11.80;99.90
14893;DHT22;7538;53.626;9.906;2023-04-24T03:33:22;11.70;99.90
14893;DHT22;7538;53.626;9.906;2023-04-24T03:35:48;11.80;99.90
14893;DHT22;7538;53.626;9.906;2023-04-24T03:38:15;11.70;99.90
14893;DHT22;7538;53.626;9.906;2023-04-24T03:40:43;11.70;99.90
14893;DHT22;7538;53.626;9.906;2023-04-24T03:43:10;11.70;99.90
14893;DHT22;7538;53.626;9.906;2023-04-24T03:45:37;11.60;99.90
14893;DHT22;7538;53.626;9.906;2023-04-24T03:48:04;11.60;99.90
14893;DHT22;7538;53.626;9.906;2023-04-24T03:50:31;11.60;99.90
14893;DHT22;7538;53.626;9.906;2023-04-24T03:52:58;11.60;99.90
14893;DHT22;7538;53.626;9.906;2023-04-24T03:55:24;11.60;99.90
14893;DHT22;7538;53.626;9.906;2023-04-24T03:57:53;11.50;99.90
14893;DHT22;7538;53.626;9.906;2023-04-24T04:00:20;11.50;99.90
14893;DHT22;7538;53.626;9.906;2023-04-24T04:02:46;11.50;99.90
14893;DHT22;7538;53.626;9.906;2023-04-24T04:05:13;11.40;99.90
14893;DHT22;7538;53.626;9.906;2023-04-24T04:07:40;11.40;99.90
14893;DHT22;7538;53.626;9.906;2023-04-24T04:10:08;11.40;99.90
14893;DHT22;7538;53.626;9.906;2023-04-24T04:12:34;11.40;99.90
14893;DHT22;7538;53.626;9.906;2023-04-24T04:15:03;11.30;99.90
14893;DHT22;7538;53.626;9.906;2023-04-24T04:17:31;11.30;99.90
14893;DHT22;7538;53.626;9.906;2023-04-24T04:19:58;11.30;99.90
14893;DHT22;7538;53.626;9.906;2023-04-24T04:22:25;11.30;99.90
14893;DHT22;7538;53.626;9.906;2023-04-24T04:24:52;11.30;99.90
14893;DHT22;7538;53.626;9.906;2023-04-24T04:27:19;11.30;99.90
14893;DHT22;7538;53.626;9.906;2023-04-24T04:29:47;11.20;99.90
14893;DHT22;7538;53.626;9.906;2023-04-24T04:32:15;11.20;99.90
14893;DHT22;7538;53.626;9.906;2023-04-24T04:34:42;10.10;99.90
14893;DHT22;7538;53.626;9.906;2023-04-24T04:37:11;11.20;99.90
14893;DHT22;7538;53.626;9.906;2023-04-24T04:39:38;11.20;99.90
14893;DHT22;7538;53.626;9.906;2023-04-24T04:42:05;11.20;99.90
14893;DHT22;7538;53.626;9.906;2023-04-24T04:44:32;11.20;99.90
14893;DHT22;7538;53.626;9.906;2023-04-24T04:47:01;11.20;99.90
14893;DHT22;7538;53.626;9.906;2023-04-24T04:49:32;11.30;99.90
14893;DHT22;7538;53.626;9.906;2023-04-24T04:51:59;11.50;99.90
14893;DHT22;7538;53.626;9.906;2023-04-24T04:54:26;10.30;99.90
14893;DHT22;7538;53.626;9.906;2023-04-24T04:56:53;11.60;99.90
14893;DHT22;7538;53.626;9.906;2023-04-24T04:59:20;11.60;99.90
14893;DHT22;7538;53.626;9.906;2023-04-24T05:01:47;11.60;99.90
14893;DHT22;7538;53.626;9.906;2023-04-24T05:04:14;11.00;99.90
14893;DHT22;7538;53.626;9.906;2023-04-24T05:06:42;11.60;99.90
14893;DHT22;7538;53.626;9.906;2023-04-24T05:09:09;11.70;99.90
14893;DHT22;7538;53.626;9.906;2023-04-24T05:11:36;11.70;99.90
14893;DHT22;7538;53.626;9.906;2023-04-24T05:14:03;11.80;99.90
14893;DHT22;7538;53.626;9.906;2023-04-24T05:16:29;12.10;99.90
14893;DHT22;7538;53.626;9.906;2023-04-24T05:18:57;11.90;99.90
14893;DHT22;7538;53.626;9.906;2023-04-24T05:21:24;12.00;99.90
14893;DHT22;7538;53.626;9.906;2023-04-24T05:23:52;12.10;99.90
14893;DHT22;7538;53.626;9.906;2023-04-24T05:26:19;12.20;99.90
14893;DHT22;7538;53.626;9.906;2023-04-24T05:28:45;12.40;99.90
14893;DHT22;7538;53.626;9.906;2023-04-24T05:31:12;12.70;99.90
14893;DHT22;7538;53.626;9.906;2023-04-24T05:33:40;12.90;99.90
14893;DHT22;7538;53.626;9.906;2023-04-24T05:36:07;13.20;99.90
14893;DHT22;7538;53.626;9.906;2023-04-24T05:38:34;13.60;99.90
14893;DHT22;7538;53.626;9.906;2023-04-24T05:41:02;13.90;99.90
14893;DHT22;7538;53.626;9.906;2023-04-24T05:43:29;14.20;99.90
14893;DHT22;7538;53.626;9.906;2023-04-24T05:45:56;14.50;99.90
14893;DHT22;7538;53.626;9.906;2023-04-24T05:48:23;14.80;99.90
14893;DHT22;7538;53.626;9.906;2023-04-24T05:50:50;14.90;99.90
14893;DHT22;7538;53.626;9.906;2023-04-24T05:53:18;15.30;99.90
14893;DHT22;7538;53.626;9.906;2023-04-24T05:55:45;15.80;99.90
14893;DHT22;7538;53.626;9.906;2023-04-24T05:58:13;16.40;99.90
14893;DHT22;7538;53.626;9.906;2023-04-24T06:00:40;17.00;99.70
14893;DHT22;7538;53.626;9.906;2023-04-24T06:03:08;17.70;97.60
14893;DHT22;7538;53.626;9.906;2023-04-24T06:05:35;18.70;96.60
14893;DHT22;7538;53.626;9.906;2023-04-24T06:08:02;19.80;93.90
14893;DHT22;7538;53.626;9.906;2023-04-24T06:10:29;20.60;90.70
14893;DHT22;7538;53.626;9.906;2023-04-24T06:12:56;21.50;86.90
14893;DHT22;7538;53.626;9.906;2023-04-24T06:15:28;22.50;84.40
14893;DHT22;7538;53.626;9.906;2023-04-24T06:17:55;23.50;79.40
14893;DHT22;7538;53.626;9.906;2023-04-24T06:20:23;25.50;76.90
14893;DHT22;7538;53.626;9.906;2023-04-24T06:22:49;25.20;72.70
14893;DHT22;7538;53.626;9.906;2023-04-24T06:25:16;25.90;67.20
14893;DHT22;7538;53.626;9.906;2023-04-24T06:27:43;26.20;64.40
14893;DHT22;7538;53.626;9.906;2023-04-24T06:30:10;26.60;61.10
14893;DHT22;7538;53.626;9.906;2023-04-24T06:32:39;26.80;59.60
14893;DHT22;7538;53.626;9.906;2023-04-24T06:35:07;26.90;58.30
14893;DHT22;7538;53.626;9.906;2023-04-24T06:37:35;27.20;57.50
14893;DHT22;7538;53.626;9.906;2023-04-24T06:40:02;27.90;57.10
14893;DHT22;7538;53.626;9.906;2023-04-24T06:42:29;28.50;55.30
14893;DHT22;7538;53.626;9.906;2023-04-24T06:44:56;28.90;52.80
14893;DHT22;7538;53.626;9.906;2023-04-24T06:47:23;28.80;52.20
14893;DHT22;7538;53.626;9.906;2023-04-24T06:49:51;28.30;51.80
14893;DHT22;7538;53.626;9.906;2023-04-24T06:52:18;28.30;52.10
14893;DHT22;7538;53.626;9.906;2023-04-24T06:54:45;28.50;51.90
14893;DHT22;7538;53.626;9.906;2023-04-24T06:57:12;28.50;51.00
14893;DHT22;7538;53.626;9.906;2023-04-24T06:59:39;28.20;50.80
14893;DHT22;7538;53.626;9.906;2023-04-24T07:02:06;27.70;51.60
14893;DHT22;7538;53.626;9.906;2023-04-24T07:04:32;27.20;51.00
14893;DHT22;7538;53.626;9.906;2023-04-24T07:07:01;27.20;51.40
14893;DHT22;7538;53.626;9.906;2023-04-24T07:09:28;27.20;50.90
14893;DHT22;7538;53.626;9.906;2023-04-24T07:11:55;27.30;51.20
14893;DHT22;7538;53.626;9.906;2023-04-24T07:14:22;27.40;50.90
14893;DHT22;7538;53.626;9.906;2023-04-24T07:16:49;27.00;50.70
14893;DHT22;7538;53.626;9.906;2023-04-24T07:19:16;26.80;51.90
14893;DHT22;7538;53.626;9.906;2023-04-24T07:21:43;26.40;51.60
14893;DHT22;7538;53.626;9.906;2023-04-24T07:24:12;25.40;52.50
14893;DHT22;7538;53.626;9.906;2023-04-24T07:26:38;24.80;53.80
14893;DHT22;7538;53.626;9.906;2023-04-24T07:29:05;24.30;55.00
14893;DHT22;7538;53.626;9.906;2023-04-24T07:31:33;24.50;54.90
14893;DHT22;7538;53.626;9.906;2023-04-24T07:33:59;24.70;54.10
14893;DHT22;7538;53.626;9.906;2023-04-24T07:36:26;25.30;54.40
14893;DHT22;7538;53.626;9.906;2023-04-24T07:38:54;26.50;52.90
14893;DHT22;7538;53.626;9.906;2023-04-24T07:41:23;27.20;51.90
14893;DHT22;7538;53.626;9.906;2023-04-24T07:43:50;28.20;51.00
14893;DHT22;7538;53.626;9.906;2023-04-24T07:46:18;28.70;49.50
14893;DHT22;7538;53.626;9.906;2023-04-24T07:48:45;28.90;48.40
14893;DHT22;7538;53.626;9.906;2023-04-24T07:51:13;27.90;49.00
14893;DHT22;7538;53.626;9.906;2023-04-24T07:53:40;26.60;50.30
14893;DHT22;7538;53.626;9.906;2023-04-24T07:56:07;25.40;51.70
14893;DHT22;7538;53.626;9.906;2023-04-24T07:58:35;24.40;54.10
14893;DHT22;7538;53.626;9.906;2023-04-24T08:01:02;23.30;55.70
14893;DHT22;7538;53.626;9.906;2023-04-24T08:03:29;22.20;57.30
14893;DHT22;7538;53.626;9.906;2023-04-24T08:05:56;21.30;59.60
14893;DHT22;7538;53.626;9.906;2023-04-24T08:08:23;20.40;61.70
14893;DHT22;7538;53.626;9.906;2023-04-24T08:10:49;19.80;65.80
14893;DHT22;7538;53.626;9.906;2023-04-24T08:13:16;20.10;66.70
14893;DHT22;7538;53.626;9.906;2023-04-24T08:15:45;20.50;66.50
14893;DHT22;7538;53.626;9.906;2023-04-24T08:18:11;21.00;65.30
14893;DHT22;7538;53.626;9.906;2023-04-24T08:20:39;21.30;64.40
14893;DHT22;7538;53.626;9.906;2023-04-24T08:23:06;21.10;63.80
14893;DHT22;7538;53.626;9.906;2023-04-24T08:25:32;20.60;65.20
14893;DHT22;7538;53.626;9.906;2023-04-24T08:28:01;20.10;66.60
14893;DHT22;7538;53.626;9.906;2023-04-24T08:30:29;19.50;67.50
14893;DHT22;7538;53.626;9.906;2023-04-24T08:32:58;19.00;69.80
14893;DHT22;7538;53.626;9.906;2023-04-24T08:35:25;18.70;72.20
14893;DHT22;7538;53.626;9.906;2023-04-24T08:37:52;18.40;73.60
14893;DHT22;7538;53.626;9.906;2023-04-24T08:40:26;18.10;75.70
14893;DHT22;7538;53.626;9.906;2023-04-24T08:42:54;17.80;78.30
14893;DHT22;7538;53.626;9.906;2023-04-24T08:45:21;17.50;80.90
14893;DHT22;7538;53.626;9.906;2023-04-24T08:47:48;17.20;82.10
14893;DHT22;7538;53.626;9.906;2023-04-24T08:50:17;17.00;84.30
14893;DHT22;7538;53.626;9.906;2023-04-24T08:52:44;16.70;86.40
14893;DHT22;7538;53.626;9.906;2023-04-24T08:55:11;16.50;89.20
14893;DHT22;7538;53.626;9.906;2023-04-24T08:57:37;16.20;90.60
14893;DHT22;7538;53.626;9.906;2023-04-24T09:00:07;16.10;91.10
14893;DHT22;7538;53.626;9.906;2023-04-24T09:02:34;15.90;92.30
14893;DHT22;7538;53.626;9.906;2023-04-24T09:05:02;15.80;93.00
14893;DHT22;7538;53.626;9.906;2023-04-24T09:07:35;15.90;93.00
14893;DHT22;7538;53.626;9.906;2023-04-24T09:10:02;16.20;93.00
14893;DHT22;7538;53.626;9.906;2023-04-24T09:12:29;16.30;92.80
14893;DHT22;7538;53.626;9.906;2023-04-24T09:14:57;16.40;92.50
14893;DHT22;7538;53.626;9.906;2023-04-24T09:17:24;16.40;92.40
14893;DHT22;7538;53.626;9.906;2023-04-24T09:19:53;16.30;92.80
14893;DHT22;7538;53.626;9.906;2023-04-24T09:22:21;16.60;93.00
14893;DHT22;7538;53.626;9.906;2023-04-24T09:24:59;16.50;92.50
14893;DHT22;7538;53.626;9.906;2023-04-24T09:27:28;16.40;92.80
14893;DHT22;7538;53.626;9.906;2023-04-24T09:29:55;16.20;92.70
14893;DHT22;7538;53.626;9.906;2023-04-24T09:32:23;16.20;93.60
14893;DHT22;7538;53.626;9.906;2023-04-24T09:35:05;16.00;93.60
14893;DHT22;7538;53.626;9.906;2023-04-24T09:37:35;15.90;94.00
14893;DHT22;7538;53.626;9.906;2023-04-24T09:40:15;15.90;94.10
14893;DHT22;7538;53.626;9.906;2023-04-24T09:42:46;16.30;93.70
14893;DHT22;7538;53.626;9.906;2023-04-24T09:45:13;15.30;93.10
14893;DHT22;7538;53.626;9.906;2023-04-24T09:47:40;17.00;92.30
14893;DHT22;7538;53.626;9.906;2023-04-24T09:50:12;17.20;92.40
14893;DHT22;7538;53.626;9.906;2023-04-24T09:52:41;17.10;91.60
14893;DHT22;7538;53.626;9.906;2023-04-24T09:55:16;17.00;92.10
14893;DHT22;7538;53.626;9.906;2023-04-24T09:57:50;16.80;92.50
14893;DHT22;7538;53.626;9.906;2023-04-24T10:00:20;16.60;92.90
14893;DHT22;7538;53.626;9.906;2023-04-24T10:02:50;16.70;93.10
14893;DHT22;7538;53.626;9.906;2023-04-24T10:05:18;16.80;92.80
14893;DHT22;7538;53.626;9.906;2023-04-24T10:07:45;16.60;92.60
14893;DHT22;7538;53.626;9.906;2023-04-24T10:10:13;16.50;92.80
14893;DHT22;7538;53.626;9.906;2023-04-24T10:12:40;16.30;93.30
14893;DHT22;7538;53.626;9.906;2023-04-24T10:15:10;16.00;93.70
14893;DHT22;7538;53.626;9.906;2023-04-24T10:17:39;16.00;94.10
14893;DHT22;7538;53.626;9.906;2023-04-24T10:20:07;15.90;94.00
14893;DHT22;7538;53.626;9.906;2023-04-24T10:22:35;15.80;93.90
14893;DHT22;7538;53.626;9.906;2023-04-24T10:25:04;14.10;93.50
14893;DHT22;7538;53.626;9.906;2023-04-24T10:27:34;15.80;94.80
14893;DHT22;7538;53.626;9.906;2023-04-24T10:30:02;15.90;94.60
14893;DHT22;7538;53.626;9.906;2023-04-24T10:32:29;16.10;94.50
14893;DHT22;7538;53.626;9.906;2023-04-24T10:34:56;16.20;94.00
14893;DHT22;7538;53.626;9.906;2023-04-24T10:37:24;16.20;93.80
14893;DHT22;7538;53.626;9.906;2023-04-24T10:39:52;16.30;93.80
14893;DHT22;7538;53.626;9.906;2023-04-24T10:42:20;16.40;93.90
14893;DHT22;7538;53.626;9.906;2023-04-24T10:44:48;16.50;93.20
14893;DHT22;7538;53.626;9.906;2023-04-24T10:47:15;16.50;93.10
14893;DHT22;7538;53.626;9.906;2023-04-24T10:49:42;16.70;93.10
14893;DHT22;7538;53.626;9.906;2023-04-24T10:52:09;16.80;93.00
14893;DHT22;7538;53.626;9.906;2023-04-24T10:54:41;16.90;92.40
14893;DHT22;7538;53.626;9.906;2023-04-24T10:57:28;17.00;92.00
14893;DHT22;7538;53.626;9.906;2023-04-24T11:00:19;17.00;92.10
14893;DHT22;7538;53.626;9.906;2023-04-24T11:02:47;16.90;92.10
14893;DHT22;7538;53.626;9.906;2023-04-24T11:05:19;16.90;92.10
14893;DHT22;7538;53.626;9.906;2023-04-24T11:08:11;16.80;92.40
14893;DHT22;7538;53.626;9.906;2023-04-24T11:10:39;16.80;92.10
14893;DHT22;7538;53.626;9.906;2023-04-24T11:13:07;16.70;92.10
14893;DHT22;7538;53.626;9.906;2023-04-24T11:15:36;16.60;92.00
14893;DHT22;7538;53.626;9.906;2023-04-24T11:18:03;16.40;92.10
14893;DHT22;7538;53.626;9.906;2023-04-24T11:20:30;16.30;91.90
14893;DHT22;7538;53.626;9.906;2023-04-24T11:23:03;16.30;92.40
14893;DHT22;7538;53.626;9.906;2023-04-24T11:25:30;16.30;92.00
14893;DHT22;7538;53.626;9.906;2023-04-24T11:28:03;16.30;92.10
14893;DHT22;7538;53.626;9.906;2023-04-24T11:30:31;16.30;92.20
14893;DHT22;7538;53.626;9.906;2023-04-24T11:33:04;16.40;92.10
14893;DHT22;7538;53.626;9.906;2023-04-24T11:35:35;16.30;91.80
14893;DHT22;7538;53.626;9.906;2023-04-24T11:38:03;16.20;91.90
14893;DHT22;7538;53.626;9.906;2023-04-24T11:40:31;16.20;92.20
14893;DHT22;7538;53.626;9.906;2023-04-24T11:43:00;16.50;92.50
14893;DHT22;7538;53.626;9.906;2023-04-24T11:45:29;16.50;92.80
14893;DHT22;7538;53.626;9.906;2023-04-24T11:47:56;16.70;91.80
14893;DHT22;7538;53.626;9.906;2023-04-24T11:50:26;16.90;91.60
14893;DHT22;7538;53.626;9.906;2023-04-24T11:52:55;16.90;91.50
14893;DHT22;7538;53.626;9.906;2023-04-24T11:55:26;17.00;91.60
14893;DHT22;7538;53.626;9.906;2023-04-24T11:57:55;17.20;91.00
14893;DHT22;7538;53.626;9.906;2023-04-24T12:00:24;17.20;90.20
14893;DHT22;7538;53.626;9.906;2023-04-24T12:02:51;17.20;90.80
14893;DHT22;7538;53.626;9.906;2023-04-24T12:05:21;17.00;90.80
14893;DHT22;7538;53.626;9.906;2023-04-24T12:07:49;16.70;90.90
14893;DHT22;7538;53.626;9.906;2023-04-24T12:10:20;16.60;90.70
14893;DHT22;7538;53.626;9.906;2023-04-24T12:12:46;16.50;90.80
14893;DHT22;7538;53.626;9.906;2023-04-24T12:15:16;16.50;91.20
14893;DHT22;7538;53.626;9.906;2023-04-24T12:17:44;16.40;90.80
14893;DHT22;7538;53.626;9.906;2023-04-24T12:20:12;16.40;91.30
14893;DHT22;7538;53.626;9.906;2023-04-24T12:22:46;16.40;91.30
14893;DHT22;7538;53.626;9.906;2023-04-24T12:25:15;16.30;91.40
14893;DHT22;7538;53.626;9.906;2023-04-24T12:27:43;16.30;91.60
14893;DHT22;7538;53.626;9.906;2023-04-24T12:30:12;16.20;92.00
14893;DHT22;7538;53.626;9.906;2023-04-24T12:32:43;16.00;91.90
14893;DHT22;7538;53.626;9.906;2023-04-24T12:35:09;15.80;91.90
14893;DHT22;7538;53.626;9.906;2023-04-24T12:37:36;15.60;92.50
14893;DHT22;7538;53.626;9.906;2023-04-24T12:40:07;15.50;92.90
14893;DHT22;7538;53.626;9.906;2023-04-24T12:42:41;15.40;93.40
14893;DHT22;7538;53.626;9.906;2023-04-24T12:45:08;15.20;93.60
14893;DHT22;7538;53.626;9.906;2023-04-24T12:47:37;15.00;94.90
14893;DHT22;7538;53.626;9.906;2023-04-24T12:50:06;15.00;95.80
14893;DHT22;7538;53.626;9.906;2023-04-24T12:52:33;14.70;96.50
14893;DHT22;7538;53.626;9.906;2023-04-24T12:55:00;14.80;97.00
14893;DHT22;7538;53.626;9.906;2023-04-24T12:57:29;14.80;97.50
14893;DHT22;7538;53.626;9.906;2023-04-24T12:59:58;14.80;97.00
14893;DHT22;7538;53.626;9.906;2023-04-24T13:02:27;14.90;96.50
14893;DHT22;7538;53.626;9.906;2023-04-24T13:04:55;14.80;96.60
14893;DHT22;7538;53.626;9.906;2023-04-24T13:07:22;14.80;96.60
14893;DHT22;7538;53.626;9.906;2023-04-24T13:09:50;14.70;96.70
14893;DHT22;7538;53.626;9.906;2023-04-24T13:12:17;14.70;96.40
14893;DHT22;7538;53.626;9.906;2023-04-24T13:14:45;14.60;97.00
14893;DHT22;7538;53.626;9.906;2023-04-24T13:17:13;14.50;97.00
14893;DHT22;7538;53.626;9.906;2023-04-24T13:19:41;14.60;97.50
14893;DHT22;7538;53.626;9.906;2023-04-24T13:22:10;14.50;97.70
14893;DHT22;7538;53.626;9.906;2023-04-24T13:24:37;14.50;97.40
14893;DHT22;7538;53.626;9.906;2023-04-24T13:27:05;14.40;97.50
14893;DHT22;7538;53.626;9.906;2023-04-24T13:29:32;14.40;98.10
14893;DHT22;7538;53.626;9.906;2023-04-24T13:31:59;14.50;98.00
14893;DHT22;7538;53.626;9.906;2023-04-24T13:34:28;14.60;97.90
14893;DHT22;7538;53.626;9.906;2023-04-24T13:36:56;14.70;97.10
14893;DHT22;7538;53.626;9.906;2023-04-24T13:39:24;14.70;97.50
14893;DHT22;7538;53.626;9.906;2023-04-24T13:41:52;14.70;97.60
14893;DHT22;7538;53.626;9.906;2023-04-24T13:44:20;14.60;97.90
14893;DHT22;7538;53.626;9.906;2023-04-24T13:46:48;14.70;98.40
14893;DHT22;7538;53.626;9.906;2023-04-24T13:49:16;14.90;98.10
14893;DHT22;7538;53.626;9.906;2023-04-24T13:51:44;17.10;98.50
14893;DHT22;7538;53.626;9.906;2023-04-24T13:54:12;14.60;97.80
14893;DHT22;7538;53.626;9.906;2023-04-24T13:56:39;14.60;97.90
14893;DHT22;7538;53.626;9.906;2023-04-24T13:59:06;14.80;98.50
14893;DHT22;7538;53.626;9.906;2023-04-24T14:01:33;14.60;99.20
14893;DHT22;7538;53.626;9.906;2023-04-24T14:04:00;14.70;98.60
14893;DHT22;7538;53.626;9.906;2023-04-24T14:06:26;14.80;98.60
14893;DHT22;7538;53.626;9.906;2023-04-24T14:08:55;14.90;98.10
14893;DHT22;7538;53.626;9.906;2023-04-24T14:11:21;15.00;97.60
14893;DHT22;7538;53.626;9.906;2023-04-24T14:13:49;15.00;97.40
14893;DHT22;7538;53.626;9.906;2023-04-24T14:16:16;15.10;97.00
14893;DHT22;7538;53.626;9.906;2023-04-24T14:18:43;15.00;97.40
14893;DHT22;7538;53.626;9.906;2023-04-24T14:21:10;15.00;97.80
14893;DHT22;7538;53.626;9.906;2023-04-24T14:23:36;14.90;99.30
14893;DHT22;7538;53.626;9.906;2023-04-24T14:26:05;14.90;99.90
14893;DHT22;7538;53.626;9.906;2023-04-24T14:28:32;14.50;99.90
14893;DHT22;7538;53.626;9.906;2023-04-24T14:30:59;14.20;99.90
14893;DHT22;7538;53.626;9.906;2023-04-24T14:33:26;14.00;99.90
14893;DHT22;7538;53.626;9.906;2023-04-24T14:35:53;13.60;99.90
14893;DHT22;7538;53.626;9.906;2023-04-24T14:38:20;13.50;99.90
14893;DHT22;7538;53.626;9.906;2023-04-24T14:40:47;13.20;99.90
14893;DHT22;7538;53.626;9.906;2023-04-24T14:43:15;13.00;99.90
14893;DHT22;7538;53.626;9.906;2023-04-24T14:45:42;12.90;99.90
14893;DHT22;7538;53.626;9.906;2023-04-24T14:48:09;12.70;99.90
14893;DHT22;7538;53.626;9.906;2023-04-24T14:50:36;12.60;99.90
14893;DHT22;7538;53.626;9.906;2023-04-24T14:53:03;12.50;99.90
14893;DHT22;7538;53.626;9.906;2023-04-24T14:55:30;12.50;99.90
14893;DHT22;7538;53.626;9.906;2023-04-24T14:57:58;12.50;99.90
14893;DHT22;7538;53.626;9.906;2023-04-24T15:00:27;12.50;99.90
14893;DHT22;7538;53.626;9.906;2023-04-24T15:02:53;12.40;99.90
14893;DHT22;7538;53.626;9.906;2023-04-24T15:05:20;12.30;99.90
14893;DHT22;7538;53.626;9.906;2023-04-24T15:07:48;12.30;99.90
14893;DHT22;7538;53.626;9.906;2023-04-24T15:10:15;12.30;99.90
14893;DHT22;7538;53.626;9.906;2023-04-24T15:12:43;12.50;99.90
14893;DHT22;7538;53.626;9.906;2023-04-24T15:15:10;12.20;99.90
14893;DHT22;7538;53.626;9.906;2023-04-24T15:17:38;12.20;99.90
14893;DHT22;7538;53.626;9.906;2023-04-24T15:20:06;12.20;99.90
14893;DHT22;7538;53.626;9.906;2023-04-24T15:22:33;12.10;99.90
14893;DHT22;7538;53.626;9.906;2023-04-24T15:25:00;12.00;99.90
14893;DHT22;7538;53.626;9.906;2023-04-24T15:27:33;12.00;99.90
14893;DHT22;7538;53.626;9.906;2023-04-24T15:30:06;11.90;99.90
14893;DHT22;7538;53.626;9.906;2023-04-24T15:32:33;11.80;99.90
14893;DHT22;7538;53.626;9.906;2023-04-24T15:35:02;11.70;99.90
14893;DHT22;7538;53.626;9.906;2023-04-24T15:37:29;11.70;99.90
14893;DHT22;7538;53.626;9.906;2023-04-24T15:39:56;11.60;99.90
14893;DHT22;7538;53.626;9.906;2023-04-24T15:42:25;11.50;99.90
14893;DHT22;7538;53.626;9.906;2023-04-24T15:44:52;11.40;99.90
14893;DHT22;7538;53.626;9.906;2023-04-24T15:47:19;8.80;99.90
14893;DHT22;7538;53.626;9.906;2023-04-24T15:49:46;11.20;99.90